createdAt,value
2017-04-02T00:00:04.904Z,0
2017-04-02T00:00:45.497Z,0
2017-04-02T00:01:26.063Z,0
2017-04-02T00:02:06.637Z,0
2017-04-02T00:02:47.225Z,0
2017-04-02T00:03:27.821Z,0
2017-04-02T00:04:08.415Z,0
2017-04-02T00:04:49.015Z,0
2017-04-02T00:05:29.591Z,0
2017-04-02T00:06:10.167Z,0
2017-04-02T00:06:50.783Z,0
2017-04-02T00:07:31.378Z,0
2017-04-02T00:08:12.020Z,0
2017-04-02T00:08:52.594Z,0
2017-04-02T00:09:33.162Z,0
2017-04-02T00:10:13.739Z,0
2017-04-02T00:10:54.314Z,0
2017-04-02T00:11:34.890Z,0
2017-04-02T00:12:15.472Z,0
2017-04-02T00:12:56.079Z,0
2017-04-02T00:13:36.652Z,0
2017-04-02T00:14:17.238Z,0
2017-04-02T00:14:57.828Z,0
2017-04-02T00:15:38.438Z,0
2017-04-02T00:16:19.031Z,0
2017-04-02T00:16:59.609Z,0
2017-04-02T00:17:40.180Z,0
2017-04-02T00:18:20.772Z,0
2017-04-02T00:19:01.338Z,0
2017-04-02T00:19:41.926Z,0
2017-04-02T00:20:22.513Z,0
2017-04-02T00:21:03.145Z,0
2017-04-02T00:21:43.766Z,0
2017-04-02T00:22:24.353Z,0
2017-04-02T00:23:04.960Z,0
2017-04-02T00:23:45.568Z,0
2017-04-02T00:24:26.175Z,0
2017-04-02T00:25:06.764Z,0
2017-04-02T00:25:47.337Z,0
2017-04-02T00:26:27.926Z,0
2017-04-02T00:27:08.530Z,0
2017-04-02T00:27:49.143Z,0
2017-04-02T00:28:29.711Z,0
2017-04-02T00:29:16.837Z,0
2017-04-02T00:29:57.457Z,0
2017-04-02T00:30:38.028Z,0
2017-04-02T00:31:18.667Z,0
2017-04-02T00:31:59.192Z,0
2017-04-02T00:32:39.785Z,0
2017-04-02T00:33:20.361Z,0
2017-04-02T00:34:00.985Z,0
2017-04-02T00:34:41.527Z,0
2017-04-02T00:35:22.134Z,0
2017-04-02T00:36:02.781Z,0
2017-04-02T00:36:43.318Z,0
2017-04-02T00:37:23.917Z,0
2017-04-02T00:38:04.495Z,0
2017-04-02T00:38:45.072Z,0
2017-04-02T00:39:25.656Z,0
2017-04-02T00:40:06.243Z,0
2017-04-02T00:40:46.830Z,0
2017-04-02T00:41:27.410Z,0
2017-04-02T00:42:08.042Z,0
2017-04-02T00:42:48.639Z,0
2017-04-02T00:43:29.233Z,0
2017-04-02T00:44:09.811Z,0
2017-04-02T00:44:50.391Z,0
2017-04-02T00:45:31.004Z,0
2017-04-02T00:46:11.602Z,0
2017-04-02T00:46:52.197Z,0
2017-04-02T00:47:32.786Z,0
2017-04-02T00:48:13.362Z,0
2017-04-02T00:48:53.952Z,0
2017-04-02T00:49:34.531Z,0
2017-04-02T00:50:15.098Z,0
2017-04-02T00:50:55.711Z,0
2017-04-02T00:51:36.300Z,0
2017-04-02T00:52:16.875Z,0
2017-04-02T00:52:57.453Z,0
2017-04-02T00:53:38.048Z,0
2017-04-02T00:54:18.630Z,0
2017-04-02T00:54:59.201Z,0
2017-04-02T00:55:39.793Z,0
2017-04-02T00:56:20.371Z,0
2017-04-02T00:57:00.969Z,0
2017-04-02T00:57:41.543Z,0
2017-04-02T00:58:22.150Z,0
2017-04-02T00:59:02.751Z,0
2017-04-02T00:59:43.355Z,0
2017-04-02T01:00:23.955Z,0
2017-04-02T01:01:04.544Z,0
2017-04-02T01:01:45.147Z,0
2017-04-02T01:02:25.745Z,0
2017-04-02T01:03:06.379Z,0
2017-04-02T01:03:46.902Z,0
2017-04-02T01:04:27.504Z,0
2017-04-02T01:05:08.089Z,0
2017-04-02T01:05:48.664Z,0
2017-04-02T01:06:29.237Z,0
2017-04-02T01:07:09.829Z,0
2017-04-02T01:07:50.419Z,0
2017-04-02T01:08:31.015Z,0
2017-04-02T01:09:11.609Z,0
2017-04-02T01:09:52.186Z,0
2017-04-02T01:10:32.775Z,0
2017-04-02T01:11:13.351Z,0
2017-04-02T01:11:53.925Z,0
2017-04-02T01:12:34.507Z,0
2017-04-02T01:13:15.093Z,0
2017-04-02T01:13:55.680Z,0
2017-04-02T01:14:37.212Z,0
2017-04-02T01:15:17.817Z,0
2017-04-02T01:16:03.219Z,0
2017-04-02T01:16:43.869Z,0
2017-04-02T01:17:24.447Z,0
2017-04-02T01:18:05.042Z,0
2017-04-02T01:18:45.650Z,0
2017-04-02T01:19:26.260Z,0
2017-04-02T01:20:06.872Z,0
2017-04-02T01:20:47.483Z,0
2017-04-02T01:21:28.063Z,0
2017-04-02T01:22:08.683Z,0
2017-04-02T01:22:49.263Z,0
2017-04-02T01:23:29.826Z,0
2017-04-02T01:24:10.439Z,0
2017-04-02T01:24:51.023Z,0
2017-04-02T01:25:31.614Z,0
2017-04-02T01:26:12.188Z,0
2017-04-02T01:26:52.768Z,0
2017-04-02T01:27:33.365Z,0
2017-04-02T01:28:13.947Z,0
2017-04-02T01:28:54.548Z,0
2017-04-02T01:29:35.135Z,0
2017-04-02T01:30:15.722Z,0
2017-04-02T01:30:56.302Z,0
2017-04-02T01:31:36.917Z,0
2017-04-02T01:32:17.528Z,0
2017-04-02T01:32:58.096Z,0
2017-04-02T01:33:38.674Z,0
2017-04-02T01:34:19.264Z,0
2017-04-02T01:34:59.837Z,0
2017-04-02T01:35:40.445Z,0
2017-04-02T01:36:21.051Z,0
2017-04-02T01:37:01.634Z,0
2017-04-02T01:37:42.224Z,0
2017-04-02T01:38:22.829Z,0
2017-04-02T01:39:03.411Z,0
2017-04-02T01:39:43.990Z,0
2017-04-02T01:40:24.588Z,0
2017-04-02T01:41:05.205Z,0
2017-04-02T01:41:45.773Z,0
2017-04-02T01:42:26.357Z,0
2017-04-02T01:43:06.929Z,0
2017-04-02T01:43:47.507Z,0
2017-04-02T01:44:28.102Z,0
2017-04-02T01:45:08.675Z,0
2017-04-02T01:45:49.260Z,0
2017-04-02T01:46:29.832Z,0
2017-04-02T01:47:10.428Z,0
2017-04-02T01:47:51.019Z,0
2017-04-02T01:48:31.609Z,0
2017-04-02T01:49:12.222Z,0
2017-04-02T01:49:52.810Z,0
2017-04-02T01:50:33.428Z,0
2017-04-02T01:51:14.018Z,0
2017-04-02T01:51:54.614Z,0
2017-04-02T01:52:35.184Z,0
2017-04-02T01:53:15.785Z,0
2017-04-02T01:53:56.396Z,0
2017-04-02T01:54:36.982Z,0
2017-04-02T01:55:17.567Z,0
2017-04-02T01:55:58.146Z,0
2017-04-02T01:56:38.747Z,0
2017-04-02T01:57:19.305Z,0
2017-04-02T01:57:59.901Z,0
2017-04-02T01:58:40.485Z,0
2017-04-02T01:59:21.058Z,0
2017-04-02T02:00:01.637Z,0
2017-04-02T02:00:42.224Z,0
2017-04-02T02:01:22.803Z,0
2017-04-02T02:02:03.388Z,0
2017-04-02T02:02:43.962Z,0
2017-04-02T02:03:24.559Z,0
2017-04-02T02:04:05.137Z,0
2017-04-02T02:04:45.762Z,0
2017-04-02T02:05:26.376Z,0
2017-04-02T02:06:06.980Z,0
2017-04-02T02:06:47.560Z,0
2017-04-02T02:07:28.166Z,0
2017-04-02T02:08:08.768Z,0
2017-04-02T02:08:49.362Z,0
2017-04-02T02:09:29.981Z,0
2017-04-02T02:10:10.560Z,0
2017-04-02T02:10:51.166Z,0
2017-04-02T02:11:31.785Z,0
2017-04-02T02:12:12.366Z,0
2017-04-02T02:12:52.951Z,0
2017-04-02T02:13:33.521Z,0
2017-04-02T02:14:14.106Z,0
2017-04-02T02:14:54.721Z,0
2017-04-02T02:15:35.289Z,0
2017-04-02T02:16:15.891Z,0
2017-04-02T02:16:56.480Z,0
2017-04-02T02:17:37.052Z,0
2017-04-02T02:18:17.642Z,0
2017-04-02T02:18:58.261Z,0
2017-04-02T02:19:38.842Z,0
2017-04-02T02:20:19.438Z,0
2017-04-02T02:21:00.022Z,0
2017-04-02T02:21:40.598Z,0
2017-04-02T02:22:21.199Z,0
2017-04-02T02:23:01.783Z,0
2017-04-02T02:23:42.357Z,0
2017-04-02T02:24:22.937Z,0
2017-04-02T02:25:03.559Z,0
2017-04-02T02:25:44.167Z,0
2017-04-02T02:26:24.743Z,0
2017-04-02T02:27:05.326Z,0
2017-04-02T02:27:45.910Z,0
2017-04-02T02:28:26.516Z,0
2017-04-02T02:29:07.104Z,0
2017-04-02T02:29:47.682Z,0
2017-04-02T02:30:30.108Z,0
2017-04-02T02:31:10.705Z,0
2017-04-02T02:31:51.388Z,0
2017-04-02T02:32:32.026Z,0
2017-04-02T02:33:12.604Z,0
2017-04-02T02:33:53.188Z,0
2017-04-02T02:34:33.768Z,0
2017-04-02T02:35:14.350Z,0
2017-04-02T02:35:54.924Z,0
2017-04-02T02:36:35.513Z,0
2017-04-02T02:37:16.074Z,0
2017-04-02T02:37:56.660Z,0
2017-04-02T02:38:37.259Z,0
2017-04-02T02:39:17.826Z,0
2017-04-02T02:39:58.402Z,0
2017-04-02T02:40:38.995Z,0
2017-04-02T02:41:19.581Z,0
2017-04-02T02:42:00.172Z,0
2017-04-02T02:42:40.766Z,0
2017-04-02T02:43:21.350Z,0
2017-04-02T02:44:01.937Z,0
2017-04-02T02:44:42.546Z,0
2017-04-02T02:45:23.128Z,0
2017-04-02T02:46:03.739Z,0
2017-04-02T02:46:44.333Z,0
2017-04-02T02:47:24.906Z,0
2017-04-02T02:48:05.514Z,0
2017-04-02T02:48:46.080Z,0
2017-04-02T02:49:26.677Z,0
2017-04-02T02:50:07.255Z,0
2017-04-02T02:50:47.837Z,0
2017-04-02T02:51:28.409Z,0
2017-04-02T02:52:08.999Z,0
2017-04-02T02:52:54.466Z,0
2017-04-02T02:53:35.072Z,0
2017-04-02T02:54:15.642Z,0
2017-04-02T02:54:56.245Z,0
2017-04-02T02:55:36.835Z,0
2017-04-02T02:56:17.399Z,0
2017-04-02T02:56:57.998Z,0
2017-04-02T02:57:38.576Z,0
2017-04-02T02:58:19.177Z,0
2017-04-02T02:58:59.793Z,0
2017-04-02T02:59:40.362Z,0
2017-04-02T03:00:20.960Z,0
2017-04-02T03:05:43.291Z,0
2017-04-02T03:08:11.607Z,0
2017-04-02T03:08:52.229Z,0
2017-04-02T03:09:32.810Z,0
2017-04-02T03:10:13.376Z,0
2017-04-02T03:10:53.969Z,0
2017-04-02T03:11:34.583Z,0
2017-04-02T03:12:15.174Z,0
2017-04-02T03:12:55.788Z,0
2017-04-02T03:13:36.387Z,0
2017-04-02T03:14:16.972Z,0
2017-04-02T03:14:57.546Z,0
2017-04-02T03:15:38.184Z,0
2017-04-02T03:16:18.806Z,0
2017-04-02T03:16:59.386Z,0
2017-04-02T03:17:39.962Z,0
2017-04-02T03:18:20.538Z,0
2017-04-02T03:19:01.132Z,0
2017-04-02T03:19:41.742Z,0
2017-04-02T03:20:22.353Z,0
2017-04-02T03:21:02.947Z,0
2017-04-02T03:21:43.542Z,0
2017-04-02T03:22:24.124Z,0
2017-04-02T03:23:04.714Z,0
2017-04-02T03:23:45.295Z,0
2017-04-02T03:25:58.371Z,0
2017-04-02T03:28:33.282Z,0
2017-04-02T03:29:13.858Z,0
2017-04-02T03:29:54.457Z,0
2017-04-02T03:31:25.654Z,0
2017-04-02T03:32:06.233Z,0
2017-04-02T03:32:46.811Z,0
2017-04-02T03:35:06.446Z,0
2017-04-02T03:35:47.025Z,0
2017-04-02T03:38:00.339Z,0
2017-04-02T03:38:40.904Z,0
2017-04-02T03:39:21.497Z,0
2017-04-02T03:40:02.095Z,0
2017-04-02T03:40:42.666Z,0
2017-04-02T03:41:23.249Z,0
2017-04-02T03:42:03.837Z,0
2017-04-02T03:42:44.425Z,0
2017-04-02T03:43:28.759Z,0
2017-04-02T03:44:14.143Z,0
2017-04-02T03:44:54.720Z,0
2017-04-02T03:45:35.293Z,0
2017-04-02T03:46:15.856Z,0
2017-04-02T03:46:56.455Z,0
2017-04-02T03:47:37.048Z,0
2017-04-02T03:48:17.619Z,0
2017-04-02T03:48:58.210Z,0
2017-04-02T03:49:38.791Z,0
2017-04-02T03:50:19.368Z,0
2017-04-02T03:50:59.955Z,0
2017-04-02T03:51:40.550Z,0
2017-04-02T03:52:21.137Z,0
2017-04-02T03:53:01.706Z,0
2017-04-02T03:53:42.316Z,0
2017-04-02T03:54:22.881Z,0
2017-04-02T03:55:03.468Z,0
2017-04-02T03:55:44.043Z,0
2017-04-02T03:56:24.618Z,0
2017-04-02T03:57:05.209Z,0
2017-04-02T03:57:45.780Z,0
2017-04-02T03:58:26.350Z,0
2017-04-02T03:59:06.921Z,0
2017-04-02T03:59:47.516Z,0
2017-04-02T04:00:28.089Z,0
2017-04-02T04:01:08.670Z,0
2017-04-02T04:01:49.282Z,0
2017-04-02T04:02:29.893Z,0
2017-04-02T04:03:10.551Z,0
2017-04-02T04:03:51.140Z,0
2017-04-02T04:04:31.750Z,0
2017-04-02T04:05:12.319Z,0
2017-04-02T04:05:52.953Z,0
2017-04-02T04:06:33.539Z,4
2017-04-02T04:07:14.099Z,4
2017-04-02T04:07:54.676Z,4
2017-04-02T04:08:35.244Z,0
2017-04-02T04:09:15.837Z,0
2017-04-02T04:09:56.431Z,4
2017-04-02T04:10:37.012Z,4
2017-04-02T04:11:17.587Z,0
2017-04-02T04:11:58.173Z,4
2017-04-02T04:12:38.747Z,4
2017-04-02T04:13:19.336Z,4
2017-04-02T04:13:59.923Z,4
2017-04-02T04:14:40.521Z,4
2017-04-02T04:15:21.104Z,8
2017-04-02T04:16:01.705Z,8
2017-04-02T04:16:42.274Z,8
2017-04-02T04:17:22.847Z,12
2017-04-02T04:18:03.446Z,12
2017-04-02T04:18:44.048Z,12
2017-04-02T04:19:24.647Z,16
2017-04-02T04:20:05.212Z,12
2017-04-02T04:20:48.372Z,16
2017-04-02T04:21:28.939Z,16
2017-04-02T04:22:09.499Z,20
2017-04-02T04:22:50.080Z,20
2017-04-02T04:23:30.657Z,24
2017-04-02T04:24:11.255Z,24
2017-04-02T04:24:51.835Z,28
2017-04-02T04:25:32.439Z,32
2017-04-02T04:26:13.021Z,36
2017-04-02T04:26:53.593Z,40
2017-04-02T04:27:34.180Z,40
2017-04-02T04:28:14.775Z,44
2017-04-02T04:28:55.370Z,52
2017-04-02T04:29:35.986Z,52
2017-04-02T04:30:16.579Z,56
2017-04-02T04:30:57.133Z,64
2017-04-02T04:31:38.554Z,68
2017-04-02T04:32:19.131Z,72
2017-04-02T04:32:59.731Z,80
2017-04-02T04:33:40.315Z,84
2017-04-02T04:34:20.886Z,92
2017-04-02T04:35:01.479Z,100
2017-04-02T04:35:42.067Z,104
2017-04-02T04:36:22.663Z,112
2017-04-02T04:37:03.250Z,120
2017-04-02T04:37:43.850Z,128
2017-04-02T04:38:24.439Z,136
2017-04-02T04:39:05.015Z,148
2017-04-02T04:39:46.201Z,156
2017-04-02T04:40:26.825Z,164
2017-04-02T04:41:07.409Z,172
2017-04-02T04:41:48.020Z,184
2017-04-02T04:42:28.596Z,196
2017-04-02T04:43:09.228Z,208
2017-04-02T04:43:49.872Z,216
2017-04-02T04:44:30.453Z,232
2017-04-02T04:47:03.948Z,284
2017-04-02T04:47:44.558Z,300
2017-04-02T04:48:25.139Z,316
2017-04-02T04:49:06.016Z,336
2017-04-02T04:49:46.632Z,352
2017-04-02T04:50:27.210Z,372
2017-04-02T04:51:07.784Z,388
2017-04-02T04:51:49.066Z,408
2017-04-02T04:52:29.662Z,428
2017-04-02T04:53:10.253Z,448
2017-04-02T04:53:50.868Z,472
2017-04-02T04:54:31.449Z,496
2017-04-02T04:55:12.046Z,520
2017-04-02T04:55:52.608Z,540
2017-04-02T04:56:33.182Z,564
2017-04-02T04:57:13.764Z,588
2017-04-02T04:57:55.312Z,612
2017-04-02T04:58:35.887Z,632
2017-04-02T04:59:16.511Z,652
2017-04-02T04:59:57.081Z,676
2017-04-02T05:00:38.673Z,696
2017-04-02T05:01:19.268Z,716
2017-04-02T05:01:59.863Z,736
2017-04-02T05:02:40.436Z,756
2017-04-02T05:03:21.067Z,768
2017-04-02T05:04:01.654Z,784
2017-04-02T05:04:42.273Z,800
2017-04-02T05:05:22.852Z,828
2017-04-02T05:06:03.455Z,852
2017-04-02T05:06:44.033Z,892
2017-04-02T05:07:24.603Z,944
2017-04-02T05:08:05.181Z,1008
2017-04-02T05:08:45.752Z,1056
2017-04-02T05:09:26.340Z,1104
2017-04-02T05:10:06.929Z,1156
2017-04-02T05:10:47.514Z,1208
2017-04-02T05:11:28.104Z,1260
2017-04-02T05:12:08.680Z,1316
2017-04-02T05:12:49.253Z,1372
2017-04-02T05:13:29.828Z,1428
2017-04-02T05:14:10.403Z,1480
2017-04-02T05:14:50.976Z,1540
2017-04-02T05:15:31.637Z,1592
2017-04-02T05:16:12.235Z,1644
2017-04-02T05:16:52.809Z,1704
2017-04-02T05:17:33.394Z,1760
2017-04-02T05:18:13.977Z,1816
2017-04-02T05:18:54.563Z,1872
2017-04-02T05:19:35.150Z,1920
2017-04-02T05:20:15.744Z,1968
2017-04-02T05:20:56.352Z,2004
2017-04-02T05:21:36.927Z,2028
2017-04-02T05:22:17.546Z,2044
2017-04-02T05:22:58.135Z,2048
2017-04-02T05:23:38.694Z,2048
2017-04-02T05:24:19.266Z,2044
2017-04-02T05:24:59.838Z,2036
2017-04-02T05:25:40.423Z,2040
2017-04-02T05:26:20.988Z,2072
2017-04-02T05:27:01.568Z,2100
2017-04-02T05:27:42.155Z,2116
2017-04-02T05:28:22.731Z,2160
2017-04-02T05:29:03.324Z,2236
2017-04-02T05:29:43.912Z,2332
2017-04-02T05:30:24.499Z,2420
2017-04-02T05:31:05.136Z,2508
2017-04-02T05:31:45.701Z,2600
2017-04-02T05:32:26.292Z,2692
2017-04-02T05:33:06.892Z,2784
2017-04-02T05:33:47.531Z,2864
2017-04-02T05:34:28.114Z,2940
2017-04-02T05:35:08.714Z,3016
2017-04-02T05:35:49.322Z,3084
2017-04-02T05:36:29.922Z,3148
2017-04-02T05:37:10.518Z,3200
2017-04-02T05:37:51.096Z,3252
2017-04-02T05:38:31.691Z,3300
2017-04-02T05:39:12.258Z,3356
2017-04-02T05:39:52.920Z,3420
2017-04-02T05:40:33.551Z,3496
2017-04-02T05:41:14.134Z,3556
2017-04-02T05:41:54.749Z,3616
2017-04-02T05:42:35.326Z,3664
2017-04-02T05:43:15.948Z,3720
2017-04-02T05:43:56.524Z,3776
2017-04-02T05:44:37.120Z,3828
2017-04-02T05:45:17.723Z,3876
2017-04-02T05:45:58.300Z,3920
2017-04-02T05:46:38.973Z,3976
2017-04-02T05:47:19.628Z,4044
2017-04-02T05:48:00.168Z,4116
2017-04-02T05:48:40.768Z,4192
2017-04-02T05:49:21.344Z,4272
2017-04-02T05:50:01.937Z,4332
2017-04-02T05:50:42.522Z,4344
2017-04-02T05:51:23.137Z,4292
2017-04-02T05:52:03.739Z,4236
2017-04-02T05:52:44.325Z,4360
2017-04-02T05:53:24.887Z,4532
2017-04-02T05:54:05.479Z,4616
2017-04-02T05:54:46.058Z,4656
2017-04-02T05:55:26.657Z,4712
2017-04-02T05:56:07.297Z,4780
2017-04-02T05:56:47.964Z,4852
2017-04-02T05:57:28.552Z,4960
2017-04-02T05:58:09.165Z,5080
2017-04-02T05:58:49.767Z,5216
2017-04-02T05:59:30.360Z,5388
2017-04-02T06:00:10.979Z,5460
2017-04-02T06:00:51.558Z,5496
2017-04-02T06:01:32.124Z,5504
2017-04-02T06:02:12.727Z,5472
2017-04-02T06:02:53.314Z,5472
2017-04-02T06:05:14.435Z,5844
2017-04-02T06:05:55.029Z,5904
2017-04-02T06:06:35.610Z,6028
2017-04-02T06:07:16.218Z,6140
2017-04-02T06:07:56.789Z,6308
2017-04-02T06:08:37.366Z,6492
2017-04-02T06:09:17.954Z,6900
2017-04-02T06:11:31.010Z,8052
2017-04-02T06:12:11.574Z,7684
2017-04-02T06:12:52.175Z,7148
2017-04-02T06:13:32.787Z,6544
2017-04-02T06:14:13.379Z,5960
2017-04-02T06:15:00.682Z,5568
2017-04-02T06:17:15.519Z,4244
2017-04-02T06:17:56.078Z,3944
2017-04-02T06:18:36.666Z,3888
2017-04-02T06:19:17.236Z,3828
2017-04-02T06:19:57.805Z,3728
2017-04-02T06:20:38.388Z,3624
2017-04-02T06:21:18.999Z,3560
2017-04-02T06:21:59.566Z,3512
2017-04-02T06:22:40.163Z,3576
2017-04-02T06:23:20.749Z,3780
2017-04-02T06:24:01.313Z,3932
2017-04-02T06:24:41.893Z,4228
2017-04-02T06:25:22.471Z,4396
2017-04-02T06:26:03.112Z,4532
2017-04-02T06:26:43.686Z,4932
2017-04-02T06:27:24.257Z,5588
2017-04-02T06:28:04.859Z,6192
2017-04-02T06:28:45.453Z,7080
2017-04-02T06:29:26.021Z,7928
2017-04-02T06:30:06.599Z,8588
2017-04-02T06:30:49.679Z,8228
2017-04-02T06:31:30.263Z,8364
2017-04-02T06:32:10.835Z,9192
2017-04-02T06:32:51.415Z,9736
2017-04-02T06:33:31.998Z,9900
2017-04-02T06:34:12.585Z,10060
2017-04-02T06:34:53.180Z,10456
2017-04-02T06:35:34.430Z,10820
2017-04-02T06:36:15.008Z,10968
2017-04-02T06:36:55.709Z,10944
2017-04-02T06:37:36.279Z,11168
2017-04-02T06:38:16.854Z,11404
2017-04-02T06:38:57.443Z,14472
2017-04-02T06:39:38.034Z,20704
2017-04-02T06:40:18.621Z,28928
2017-04-02T06:40:59.200Z,22560
2017-04-02T06:41:39.787Z,17984
2017-04-02T06:42:20.403Z,10860
2017-04-02T06:43:00.975Z,25056
2017-04-02T06:43:41.590Z,9592
2017-04-02T06:44:22.306Z,18656
2017-04-02T06:45:02.897Z,15392
2017-04-02T06:45:43.459Z,11208
2017-04-02T06:46:24.047Z,8084
2017-04-02T06:47:04.642Z,7872
2017-04-02T06:47:45.264Z,8608
2017-04-02T06:48:25.843Z,12768
2017-04-02T06:49:06.471Z,9916
2017-04-02T06:49:47.047Z,9744
2017-04-02T06:50:27.627Z,7440
2017-04-02T06:51:08.213Z,7160
2017-04-02T06:51:48.777Z,7312
2017-04-02T06:52:29.349Z,7916
2017-04-02T06:53:09.924Z,7928
2017-04-02T06:53:50.521Z,8412
2017-04-02T06:54:31.139Z,9320
2017-04-02T06:55:11.720Z,10096
2017-04-02T06:55:52.338Z,11332
2017-04-02T06:56:33.006Z,18176
2017-04-02T06:57:13.596Z,34336
2017-04-02T06:57:54.169Z,45664
2017-04-02T06:58:34.759Z,48384
2017-04-02T06:59:15.335Z,35520
2017-04-02T06:59:55.906Z,46528
2017-04-02T07:00:36.511Z,47776
2017-04-02T07:01:17.085Z,47168
2017-04-02T07:01:57.650Z,49792
2017-04-02T07:02:38.235Z,48064
2017-04-02T07:03:18.846Z,47424
2017-04-02T07:03:59.491Z,46624
2017-04-02T07:04:40.093Z,45760
2017-04-02T07:05:20.706Z,42528
2017-04-02T07:06:01.300Z,46016
2017-04-02T07:06:41.852Z,49344
2017-04-02T07:07:24.327Z,49856
2017-04-02T07:08:04.931Z,48224
2017-04-02T07:08:45.512Z,47424
2017-04-02T07:09:26.106Z,49792
2017-04-02T07:10:06.695Z,50432
2017-04-02T07:10:47.269Z,51296
2017-04-02T07:11:27.858Z,54688
2017-04-02T07:12:08.478Z,54144
2017-04-02T07:12:49.084Z,53440
2017-04-02T07:13:29.686Z,54624
2017-04-02T07:14:10.284Z,48640
2017-04-02T07:14:50.862Z,55072
2017-04-02T07:15:31.474Z,56224
2017-04-02T07:16:12.068Z,57184
2017-04-02T07:16:53.307Z,56896
2017-04-02T07:17:33.877Z,54432
2017-04-02T07:18:14.449Z,56032
2017-04-02T07:18:55.053Z,55968
2017-04-02T07:19:35.677Z,56480
2017-04-02T07:20:16.258Z,54752
2017-04-02T07:20:56.862Z,53600
2017-04-02T07:21:37.447Z,55072
2017-04-02T07:22:18.063Z,55808
2017-04-02T07:22:58.669Z,53280
2017-04-02T07:23:39.238Z,51264
2017-04-02T07:24:19.941Z,31552
2017-04-02T07:25:00.548Z,16352
2017-04-02T07:25:41.131Z,13564
2017-04-02T07:26:21.722Z,11992
2017-04-02T07:27:02.315Z,10936
2017-04-02T07:27:42.937Z,11052
2017-04-02T07:28:23.533Z,10176
2017-04-02T07:29:04.119Z,10116
2017-04-02T07:29:44.705Z,10036
2017-04-02T07:30:25.313Z,9636
2017-04-02T07:31:05.895Z,10408
2017-04-02T07:31:46.470Z,7688
2017-04-02T07:32:27.058Z,6696
2017-04-02T07:33:07.679Z,6132
2017-04-02T07:33:48.307Z,6880
2017-04-02T07:34:28.886Z,6016
2017-04-02T07:35:09.481Z,5652
2017-04-02T07:35:50.094Z,5824
2017-04-02T07:36:30.714Z,5032
2017-04-02T07:37:11.290Z,4612
2017-04-02T07:37:51.914Z,4312
2017-04-02T07:38:32.493Z,3968
2017-04-02T07:39:13.122Z,3788
2017-04-02T07:39:53.700Z,3748
2017-04-02T07:40:34.295Z,3768
2017-04-02T07:41:14.881Z,3820
2017-04-02T07:41:55.450Z,3912
2017-04-02T07:42:36.022Z,4012
2017-04-02T07:43:16.616Z,4164
2017-04-02T07:43:57.239Z,4364
2017-04-02T07:44:37.824Z,4692
2017-04-02T07:45:18.415Z,4544
2017-04-02T07:45:59.010Z,4816
2017-04-02T07:46:39.627Z,5460
2017-04-02T07:47:20.245Z,6056
2017-04-02T07:48:03.208Z,8144
2017-04-02T07:48:44.136Z,9500
2017-04-02T07:49:25.059Z,10088
2017-04-02T07:50:09.253Z,14660
2017-04-02T07:50:55.715Z,27456
2017-04-02T07:51:36.333Z,10048
2017-04-02T07:52:16.918Z,9152
2017-04-02T07:52:57.642Z,8544
2017-04-02T07:53:38.418Z,9128
2017-04-02T07:54:18.999Z,11140
2017-04-02T07:54:59.600Z,32096
2017-04-02T07:55:40.236Z,41472
2017-04-02T07:56:20.793Z,42272
2017-04-02T07:57:01.363Z,38784
2017-04-02T07:57:41.933Z,34848
2017-04-02T07:58:22.515Z,42784
2017-04-02T07:59:03.102Z,44608
2017-04-02T07:59:43.713Z,36800
2017-04-02T08:00:24.293Z,28576
2017-04-02T08:01:04.904Z,17248
2017-04-02T08:01:45.530Z,13668
2017-04-02T08:02:26.122Z,10808
2017-04-02T08:03:06.727Z,9456
2017-04-02T08:03:47.312Z,8852
2017-04-02T08:04:27.918Z,8316
2017-04-02T08:05:08.506Z,8228
2017-04-02T08:05:49.078Z,8484
2017-04-02T08:06:29.693Z,9328
2017-04-02T08:07:10.268Z,11764
2017-04-02T08:07:50.911Z,11100
2017-04-02T08:08:31.535Z,14016
2017-04-02T08:09:12.150Z,13056
2017-04-02T08:09:52.784Z,13228
2017-04-02T08:10:33.392Z,13636
2017-04-02T08:11:13.971Z,15624
2017-04-02T08:11:54.579Z,16800
2017-04-02T08:12:35.215Z,34592
2017-04-02T08:13:15.819Z,34656
2017-04-02T08:13:56.389Z,33504
2017-04-02T08:14:36.988Z,27552
2017-04-02T08:15:17.586Z,23904
2017-04-02T08:15:58.188Z,27392
2017-04-02T08:16:38.786Z,53376
2017-04-02T08:17:19.364Z,25024
2017-04-02T08:17:59.951Z,17152
2017-04-02T08:18:40.550Z,18048
2017-04-02T08:19:21.131Z,47840
2017-04-02T08:20:01.701Z,35648
2017-04-02T08:20:42.332Z,27552
2017-04-02T08:21:22.928Z,26496
2017-04-02T08:22:03.549Z,24832
2017-04-02T08:22:44.142Z,24576
2017-04-02T08:23:24.713Z,25152
2017-04-02T08:24:05.311Z,19680
2017-04-02T08:24:45.894Z,20704
2017-04-02T08:25:27.160Z,21920
2017-04-02T08:26:07.753Z,20128
2017-04-02T08:26:48.361Z,18304
2017-04-02T08:27:29.011Z,19424
2017-04-02T08:28:09.586Z,20736
2017-04-02T08:28:52.303Z,19328
2017-04-02T08:29:35.496Z,16432
2017-04-02T08:30:16.539Z,16376
2017-04-02T08:30:57.116Z,16212
2017-04-02T08:31:38.714Z,15612
2017-04-02T08:32:20.997Z,16124
2017-04-02T08:33:03.079Z,18432
2017-04-02T08:33:46.303Z,18400
2017-04-02T08:34:27.489Z,19040
2017-04-02T08:35:08.691Z,19520
2017-04-02T08:35:49.914Z,15996
2017-04-02T08:36:30.519Z,18176
2017-04-02T08:37:11.124Z,19200
2017-04-02T08:37:51.723Z,19104
2017-04-02T08:38:34.386Z,18752
2017-04-02T08:39:15.601Z,18336
2017-04-02T08:39:59.614Z,17824
2017-04-02T08:40:40.888Z,17072
2017-04-02T08:41:22.558Z,16860
2017-04-02T08:42:07.280Z,16700
2017-04-02T08:42:49.331Z,16644
2017-04-02T08:43:32.143Z,16512
2017-04-02T08:44:13.696Z,16472
2017-04-02T08:44:56.630Z,16248
2017-04-02T08:45:38.951Z,15992
2017-04-02T08:46:19.947Z,15824
2017-04-02T08:47:01.883Z,15984
2017-04-02T08:47:44.383Z,15984
2017-04-02T08:48:26.930Z,16200
2017-04-02T08:49:08.433Z,16088
2017-04-02T08:49:49.036Z,16068
2017-04-02T08:50:30.663Z,15232
2017-04-02T08:51:12.589Z,14516
2017-04-02T08:51:53.213Z,13508
2017-04-02T08:52:34.155Z,12784
2017-04-02T08:53:15.328Z,12996
2017-04-02T08:53:57.164Z,13040
2017-04-02T08:54:39.578Z,12880
2017-04-02T08:55:21.075Z,12588
2017-04-02T08:56:02.382Z,12188
2017-04-02T08:56:43.949Z,11664
2017-04-02T08:57:24.527Z,11148
2017-04-02T08:58:05.174Z,11216
2017-04-02T08:58:45.746Z,11068
2017-04-02T08:59:26.321Z,13036
2017-04-02T09:00:06.975Z,13744
2017-04-02T09:00:47.567Z,14300
2017-04-02T09:01:28.182Z,13980
2017-04-02T09:02:08.792Z,14304
2017-04-02T09:02:49.383Z,14204
2017-04-02T09:03:29.999Z,14128
2017-04-02T09:04:10.588Z,13816
2017-04-02T09:04:51.177Z,13588
2017-04-02T09:05:31.786Z,13564
2017-04-02T09:06:12.403Z,13472
2017-04-02T09:06:53.032Z,13424
2017-04-02T09:07:33.650Z,13324
2017-04-02T09:08:14.260Z,12592
2017-04-02T09:08:54.853Z,10308
2017-04-02T09:09:35.441Z,10164
2017-04-02T09:10:16.056Z,11364
2017-04-02T09:10:56.642Z,12400
2017-04-02T09:11:37.220Z,12988
2017-04-02T09:12:17.805Z,13084
2017-04-02T09:12:58.390Z,12628
2017-04-02T09:13:38.991Z,12716
2017-04-02T09:14:19.577Z,12952
2017-04-02T09:15:00.232Z,12344
2017-04-02T09:15:40.814Z,12152
2017-04-02T09:16:21.399Z,12272
2017-04-02T09:17:01.986Z,11860
2017-04-02T09:17:42.583Z,11756
2017-04-02T09:18:23.207Z,12000
2017-04-02T09:19:03.811Z,12912
2017-04-02T09:19:44.393Z,12540
2017-04-02T09:20:25.306Z,13428
2017-04-02T09:21:06.299Z,13392
2017-04-02T09:21:46.900Z,13208
2017-04-02T09:22:27.514Z,13144
2017-04-02T09:23:08.144Z,12908
2017-04-02T09:23:48.723Z,13100
2017-04-02T09:24:29.334Z,13092
2017-04-02T09:25:09.907Z,13084
2017-04-02T09:25:50.511Z,12864
2017-04-02T09:26:31.102Z,12932
2017-04-02T09:27:11.696Z,12776
2017-04-02T09:27:52.303Z,12532
2017-04-02T09:28:32.902Z,11968
2017-04-02T09:29:13.486Z,12188
2017-04-02T09:29:54.093Z,12188
2017-04-02T09:30:34.660Z,11940
2017-04-02T09:31:15.264Z,12084
2017-04-02T09:31:55.864Z,12192
2017-04-02T09:32:36.511Z,12164
2017-04-02T09:33:17.192Z,11836
2017-04-02T09:33:57.747Z,11568
2017-04-02T09:34:38.348Z,11552
2017-04-02T09:35:18.933Z,11436
2017-04-02T09:35:59.522Z,10852
2017-04-02T09:36:40.114Z,10740
2017-04-02T09:37:21.846Z,10476
2017-04-02T09:38:02.437Z,10948
2017-04-02T09:38:43.057Z,11612
2017-04-02T09:39:23.652Z,12356
2017-04-02T09:40:04.279Z,12076
2017-04-02T09:40:44.862Z,11380
2017-04-02T09:41:25.465Z,10368
2017-04-02T09:42:06.036Z,9112
2017-04-02T09:42:46.631Z,7668
2017-04-02T09:43:27.240Z,7208
2017-04-02T09:44:07.844Z,7796